Time;durP1;ratioP1;P1;durP2;ratioP2;P2;SDS_P1;SDS_P2;PMS_P1;PMS_P2;Temp;Humidity;BMP_temperature;BMP_pressure;BME280_temperature;BME280_humidity;BME280_pressure;Samples;Min_cycle;Max_cycle;Signal;HPM_P1;HPM_P2
2022/07/24 00:01:49;;;;;;;28.70;26.10;;;;;;;19.11;100.00;99065.84;105208;1271;76012;-71
2022/07/24 00:04:16;;;;;;;28.80;26.30;;;;;;;19.08;100.00;99071.15;105239;1269;62216;-70
2022/07/24 00:06:42;;;;;;;28.60;26.00;;;;;;;19.05;100.00;99074.18;105221;1271;62104;-71
2022/07/24 00:09:08;;;;;;;26.30;23.80;;;;;;;19.02;100.00;99069.58;105140;1271;62124;-70
2022/07/24 00:11:35;;;;;;;27.90;25.00;;;;;;;19.00;100.00;99072.89;105239;1271;62181;-71
2022/07/24 00:14:01;;;;;;;26.10;23.90;;;;;;;18.98;100.00;99069.84;105229;1271;62654;-72
2022/07/24 00:16:27;;;;;;;24.20;21.90;;;;;;;18.95;100.00;99071.42;104973;1272;62270;-71
2022/07/24 00:18:53;;;;;;;23.40;21.40;;;;;;;18.91;100.00;99070.71;105196;1270;62134;-71
2022/07/24 00:21:20;;;;;;;24.00;21.80;;;;;;;18.88;100.00;99069.06;105166;1268;62182;-69
2022/07/24 00:23:46;;;;;;;25.70;23.30;;;;;;;18.84;100.00;99068.86;105233;1271;62298;-71
2022/07/24 00:26:12;;;;;;;33.60;26.30;;;;;;;18.81;100.00;99069.91;105197;1271;62161;-72
2022/07/24 00:28:39;;;;;;;32.70;29.20;;;;;;;18.78;100.00;99072.44;105193;1269;62128;-72
2022/07/24 00:31:05;;;;;;;44.50;32.40;;;;;;;18.75;100.00;99069.46;105013;1271;62248;-70
2022/07/24 00:33:31;;;;;;;58.90;36.40;;;;;;;18.72;100.00;99071.17;105235;1271;62197;-71
2022/07/24 00:35:57;;;;;;;74.20;43.90;;;;;;;18.70;100.00;99069.36;104925;1271;62080;-71
2022/07/24 00:38:23;;;;;;;76.90;48.70;;;;;;;18.70;100.00;99069.23;105275;1271;62183;-70
2022/07/24 00:40:49;;;;;;;90.30;59.70;;;;;;;18.68;100.00;99067.41;105234;1271;73522;-72
2022/07/24 00:43:16;;;;;;;83.90;61.80;;;;;;;18.68;100.00;99070.88;105199;1271;62155;-70
2022/07/24 00:45:43;;;;;;;80.50;62.20;;;;;;;18.66;100.00;99073.73;105205;1271;62094;-70
2022/07/24 00:48:10;;;;;;;67.40;53.80;;;;;;;18.65;100.00;99076.15;105237;1269;75880;-70
2022/07/24 00:50:37;;;;;;;56.00;49.50;;;;;;;18.64;100.00;99076.95;105210;1271;70773;-70
2022/07/24 00:53:04;;;;;;;48.10;43.00;;;;;;;18.62;100.00;99079.73;105202;1271;74353;-70
2022/07/24 00:55:32;;;;;;;56.80;50.80;;;;;;;18.61;100.00;99074.77;105190;1271;62168;-70
2022/07/24 00:57:58;;;;;;;68.00;59.30;;;;;;;18.61;100.00;99070.77;105035;1272;62335;-70
2022/07/24 01:00:24;;;;;;;82.70;69.30;;;;;;;18.60;100.00;99068.75;104947;1271;62092;-70
2022/07/24 01:02:51;;;;;;;86.90;72.60;;;;;;;18.59;100.00;99072.62;105226;1269;62203;-70
2022/07/24 01:05:19;;;;;;;65.00;57.80;;;;;;;18.59;100.00;99072.85;105218;1268;62141;-71
2022/07/24 01:07:45;;;;;;;47.90;42.90;;;;;;;18.59;100.00;99072.05;105317;1268;62147;-71
2022/07/24 01:10:11;;;;;;;33.00;29.60;;;;;;;18.62;100.00;99071.09;104994;1272;62103;-70
2022/07/24 01:12:39;;;;;;;30.60;27.30;;;;;;;18.65;100.00;99068.63;105195;1271;62156;-70
2022/07/24 01:15:08;;;;;;;26.50;24.00;;;;;;;18.66;100.00;99067.23;105226;1271;68795;-71
2022/07/24 01:17:37;;;;;;;23.70;21.40;;;;;;;18.68;100.00;99065.63;105217;1271;74293;-70
2022/07/24 01:20:05;;;;;;;23.70;21.60;;;;;;;18.68;100.00;99067.04;105229;1271;62142;-70
2022/07/24 01:22:31;;;;;;;23.10;21.10;;;;;;;18.70;100.00;99067.04;105262;1268;62104;-70
2022/07/24 01:24:57;;;;;;;24.00;21.70;;;;;;;18.75;100.00;99065.35;105214;1271;62171;-70
2022/07/24 01:27:24;;;;;;;24.40;22.10;;;;;;;18.77;100.00;99074.10;105235;1268;62141;-70
2022/07/24 01:29:51;;;;;;;24.30;22.10;;;;;;;18.80;100.00;99075.23;105320;1271;62215;-70
2022/07/24 01:32:18;;;;;;;24.20;21.90;;;;;;;18.79;100.00;99074.48;105208;1271;62167;-70
2022/07/24 01:34:44;;;;;;;25.20;22.70;;;;;;;18.80;100.00;99083.90;105216;1271;62073;-70
2022/07/24 01:37:10;;;;;;;25.70;23.20;;;;;;;18.80;100.00;99086.06;105221;1269;62197;-71
2022/07/24 01:39:36;;;;;;;24.10;21.90;;;;;;;18.82;100.00;99090.69;105226;1271;62096;-71
2022/07/24 01:42:03;;;;;;;26.40;24.00;;;;;;;18.82;100.00;99088.65;104958;1271;62206;-71
2022/07/24 01:44:29;;;;;;;27.90;25.10;;;;;;;18.81;100.00;99084.48;105217;1269;62163;-71
2022/07/24 01:46:54;;;;;;;26.30;23.80;;;;;;;18.82;100.00;99080.65;105260;1268;62166;-71
2022/07/24 01:49:21;;;;;;;27.50;24.80;;;;;;;18.84;100.00;99080.02;105246;1269;62308;-70
2022/07/24 01:51:46;;;;;;;26.00;23.70;;;;;;;18.84;100.00;99080.63;105203;1271;62038;-71
2022/07/24 01:54:12;;;;;;;27.90;25.00;;;;;;;18.85;100.00;99075.30;105228;1269;62193;-72
2022/07/24 01:56:39;;;;;;;27.60;25.10;;;;;;;18.84;100.00;99079.73;105254;1271;62164;-72
2022/07/24 01:59:05;;;;;;;28.30;25.50;;;;;;;18.83;100.00;99082.13;104985;1271;62200;-71
2022/07/24 02:01:31;;;;;;;28.20;25.40;;;;;;;18.82;100.00;99078.70;105175;1270;62074;-72
2022/07/24 02:03:57;;;;;;;29.60;26.80;;;;;;;18.81;100.00;99082.02;105210;1270;62164;-71
2022/07/24 02:06:23;;;;;;;29.50;26.80;;;;;;;18.80;100.00;99081.84;104952;1272;62539;-72
2022/07/24 02:08:49;;;;;;;32.10;29.10;;;;;;;18.78;100.00;99080.98;105216;1271;62201;-71
2022/07/24 02:11:15;;;;;;;29.70;27.10;;;;;;;18.78;100.00;99077.23;105213;1270;62066;-71
2022/07/24 02:13:41;;;;;;;29.90;27.20;;;;;;;18.78;100.00;99074.23;105215;1269;62084;-71
2022/07/24 02:16:07;;;;;;;31.70;28.70;;;;;;;18.75;100.00;99072.70;105232;1270;62267;-70
2022/07/24 02:18:33;;;;;;;31.20;28.10;;;;;;;18.75;100.00;99075.57;105231;1271;62130;-71
2022/07/24 02:20:59;;;;;;;34.90;31.70;;;;;;;18.78;100.00;99079.56;104980;1272;62155;-71
2022/07/24 02:23:25;;;;;;;31.30;28.60;;;;;;;18.79;100.00;99086.35;104965;1271;62302;-70
2022/07/24 02:25:51;;;;;;;30.60;27.80;;;;;;;18.79;100.00;99086.76;105216;1271;62898;-70
2022/07/24 02:28:18;;;;;;;31.10;28.30;;;;;;;18.73;100.00;99092.86;105224;1268;62183;-71
2022/07/24 02:30:44;;;;;;;30.80;27.90;;;;;;;18.70;100.00;99094.06;105230;1271;62266;-70
2022/07/24 02:33:11;;;;;;;30.50;27.80;;;;;;;18.67;100.00;99097.02;105167;1271;62109;-70
2022/07/24 02:35:38;;;;;;;30.30;27.50;;;;;;;18.67;100.00;99100.14;105212;1271;62045;-71
2022/07/24 02:38:04;;;;;;;28.20;25.50;;;;;;;18.67;100.00;99095.27;104997;1270;62107;-71
2022/07/24 02:40:31;;;;;;;27.80;25.30;;;;;;;18.63;100.00;99096.29;105193;1271;62164;-71
2022/07/24 02:42:57;;;;;;;26.70;24.20;;;;;;;18.58;100.00;99096.70;105274;1269;62109;-71
2022/07/24 02:45:23;;;;;;;27.30;24.70;;;;;;;18.59;100.00;99095.67;105211;1270;62072;-71
2022/07/24 02:47:55;;;;;;;27.40;25.10;;;;;;;18.60;100.00;99091.56;105211;1268;62167;-71
2022/07/24 02:50:23;;;;;;;25.60;23.10;;;;;;;18.61;100.00;99094.36;105208;1271;71992;-71
2022/07/24 02:52:50;;;;;;;27.30;24.80;;;;;;;18.59;100.00;99103.19;104927;1271;62049;-70
2022/07/24 02:55:17;;;;;;;25.60;23.30;;;;;;;18.58;100.00;99101.73;105285;1270;62095;-70
2022/07/24 02:57:43;;;;;;;25.20;22.90;;;;;;;18.53;100.00;99103.29;105180;1271;76171;-70
2022/07/24 03:00:12;;;;;;;25.30;22.90;;;;;;;18.55;100.00;99109.90;105220;1271;62059;-70
2022/07/24 03:02:39;;;;;;;24.40;22.10;;;;;;;18.49;100.00;99113.38;105280;1271;72856;-70
2022/07/24 03:05:06;;;;;;;24.00;21.80;;;;;;;18.44;100.00;99120.66;105184;1269;62110;-70
2022/07/24 03:07:32;;;;;;;24.30;21.90;;;;;;;18.45;100.00;99126.02;105248;1271;61988;-70
2022/07/24 03:09:59;;;;;;;23.50;21.40;;;;;;;18.44;100.00;99128.84;105298;1271;77231;-70
2022/07/24 03:12:25;;;;;;;22.50;20.40;;;;;;;18.39;100.00;99129.97;105231;1269;62194;-70
2022/07/24 03:14:51;;;;;;;22.00;19.90;;;;;;;18.40;100.00;99134.59;105156;1271;62049;-70
2022/07/24 03:17:17;;;;;;;21.20;19.10;;;;;;;18.38;100.00;99139.77;105219;1271;62400;-70
2022/07/24 03:19:43;;;;;;;21.40;19.30;;;;;;;18.38;100.00;99144.45;105231;1271;62252;-70
2022/07/24 03:22:09;;;;;;;19.90;18.00;;;;;;;18.40;100.00;99145.56;105200;1271;62094;-70
2022/07/24 03:24:35;;;;;;;19.80;17.90;;;;;;;18.42;100.00;99147.91;104982;1271;62356;-72
2022/07/24 03:27:01;;;;;;;19.20;17.40;;;;;;;18.46;100.00;99149.88;105206;1271;62167;-72
2022/07/24 03:29:27;;;;;;;18.70;16.70;;;;;;;18.47;100.00;99149.02;105230;1271;62181;-71
2022/07/24 03:31:53;;;;;;;17.90;16.10;;;;;;;18.50;100.00;99152.52;104920;1274;75671;-71
2022/07/24 03:34:19;;;;;;;18.80;17.20;;;;;;;18.55;100.00;99154.58;105241;1271;62202;-71
2022/07/24 03:36:45;;;;;;;18.70;17.00;;;;;;;18.77;100.00;99154.16;104968;1272;63539;-71
2022/07/24 03:39:12;;;;;;;18.10;15.90;;;;;;;19.17;100.00;99152.75;105194;1271;62225;-71
2022/07/24 03:41:37;;;;;;;16.40;14.80;;;;;;;19.60;100.00;99154.16;105219;1271;62276;-72
2022/07/24 03:44:04;;;;;;;17.60;15.80;;;;;;;19.90;100.00;99155.26;105218;1271;62659;-71
2022/07/24 03:46:30;;;;;;;16.30;14.70;;;;;;;20.10;100.00;99155.16;105209;1271;62094;-72
2022/07/24 03:48:57;;;;;;;16.10;14.60;;;;;;;20.44;100.00;99158.73;104968;1269;62251;-72
2022/07/24 03:51:23;;;;;;;15.90;14.40;;;;;;;20.72;100.00;99160.15;105186;1271;62283;-70
2022/07/24 03:53:49;;;;;;;15.60;13.90;;;;;;;20.99;100.00;99159.33;105219;1271;62098;-70
2022/07/24 03:56:17;;;;;;;15.80;14.50;;;;;;;20.92;100.00;99160.33;105203;1271;62162;-71
2022/07/24 03:58:44;;;;;;;16.80;15.30;;;;;;;20.59;100.00;99165.98;105147;1271;62097;-70
2022/07/24 04:01:10;;;;;;;15.50;14.10;;;;;;;20.40;100.00;99163.50;105222;1271;62233;-70
2022/07/24 04:03:36;;;;;;;16.40;14.90;;;;;;;20.26;100.00;99166.37;105144;1271;62158;-71
2022/07/24 04:06:06;;;;;;;16.60;15.10;;;;;;;20.16;100.00;99171.70;104977;1271;62190;-70
2022/07/24 04:08:33;;;;;;;16.70;15.20;;;;;;;20.10;100.00;99173.95;105154;1271;77380;-72
2022/07/24 04:10:59;;;;;;;16.60;14.90;;;;;;;20.15;100.00;99176.34;105289;1271;70154;-70
2022/07/24 04:13:29;;;;;;;15.80;14.40;;;;;;;20.23;100.00;99177.28;105227;1271;62103;-70
2022/07/24 04:15:55;;;;;;;14.40;13.00;;;;;;;20.50;100.00;99178.25;104941;1271;62309;-72
2022/07/24 04:18:22;;;;;;;13.10;12.00;;;;;;;21.36;100.00;99182.80;105216;1271;62521;-73
2022/07/24 04:20:48;;;;;;;13.60;12.30;;;;;;;21.59;100.00;99187.01;105243;1271;62157;-71
2022/07/24 04:23:15;;;;;;;13.90;12.60;;;;;;;21.14;100.00;99192.45;105204;1271;62184;-71
2022/07/24 04:25:41;;;;;;;13.80;12.70;;;;;;;20.81;100.00;99195.03;105177;1271;62222;-70
2022/07/24 04:28:07;;;;;;;13.10;12.10;;;;;;;21.21;100.00;99197.49;105209;1270;62187;-70
2022/07/24 04:30:33;;;;;;;13.80;12.60;;;;;;;21.60;100.00;99203.48;105215;1271;62127;-71
2022/07/24 04:32:59;;;;;;;13.30;12.20;;;;;;;22.05;100.00;99204.33;105202;1269;63006;-71
2022/07/24 04:35:25;;;;;;;14.40;13.10;;;;;;;22.65;100.00;99205.38;105201;1271;62306;-70
2022/07/24 04:37:52;;;;;;;13.40;12.20;;;;;;;23.31;100.00;99207.20;104960;1274;63253;-71
2022/07/24 04:40:18;;;;;;;13.80;12.60;;;;;;;23.77;100.00;99210.71;105192;1272;62148;-71
2022/07/24 04:42:44;;;;;;;13.30;12.00;;;;;;;24.17;100.00;99211.21;105197;1271;62033;-71
2022/07/24 04:45:12;;;;;;;13.60;12.40;;;;;;;24.57;100.00;99216.09;105205;1271;62180;-72
2022/07/24 04:47:38;;;;;;;14.10;12.90;;;;;;;25.05;100.00;99219.23;105299;1271;62161;-72
2022/07/24 04:50:06;;;;;;;13.40;12.40;;;;;;;25.43;100.00;99214.20;105279;1271;62174;-72
2022/07/24 04:52:32;;;;;;;12.70;11.60;;;;;;;25.87;100.00;99220.17;105184;1274;62177;-71
2022/07/24 04:54:58;;;;;;;12.90;11.80;;;;;;;26.19;100.00;99219.95;105209;1271;62161;-71
2022/07/24 04:57:24;;;;;;;12.50;11.60;;;;;;;26.41;100.00;99226.20;105226;1271;62281;-71
2022/07/24 04:59:50;;;;;;;11.90;11.00;;;;;;;26.60;100.00;99224.69;105221;1271;61982;-71
2022/07/24 05:02:16;;;;;;;11.40;10.50;;;;;;;26.58;100.00;99226.77;105212;1271;62049;-72
2022/07/24 05:04:43;;;;;;;10.40;9.60;;;;;;;26.77;100.00;99226.31;105205;1271;62180;-72
2022/07/24 05:07:09;;;;;;;11.00;10.10;;;;;;;26.93;100.00;99228.16;105227;1271;62157;-71
2022/07/24 05:09:35;;;;;;;10.20;9.30;;;;;;;27.03;100.00;99232.41;105279;1271;62228;-71
2022/07/24 05:12:01;;;;;;;10.90;9.90;;;;;;;26.99;100.00;99234.13;105211;1271;73246;-71
2022/07/24 05:14:27;;;;;;;10.80;9.90;;;;;;;26.96;100.00;99239.62;105216;1271;62174;-71
2022/07/24 05:16:53;;;;;;;9.00;8.30;;;;;;;27.18;100.00;99238.42;105232;1270;62754;-71
2022/07/24 05:19:19;;;;;;;9.90;9.20;;;;;;;27.27;100.00;99240.16;105185;1271;62193;-71
2022/07/24 05:21:45;;;;;;;10.10;9.20;;;;;;;27.28;100.00;99243.66;105221;1271;62055;-73
2022/07/24 05:24:10;;;;;;;10.10;9.30;;;;;;;27.38;100.00;99241.42;105214;1271;62160;-72
2022/07/24 05:26:36;;;;;;;10.30;9.40;;;;;;;27.32;100.00;99243.80;105148;1271;62492;-72
2022/07/24 05:29:05;;;;;;;10.30;9.40;;;;;;;27.23;100.00;99249.23;105286;1271;62266;-72
2022/07/24 05:31:31;;;;;;;11.40;10.50;;;;;;;27.21;100.00;99248.40;105280;1271;69553;-72
2022/07/24 05:33:58;;;;;;;9.90;9.10;;;;;;;27.22;100.00;99249.86;104984;1273;62480;-72
2022/07/24 05:36:25;;;;;;;9.80;9.10;;;;;;;27.20;100.00;99243.58;105208;1271;62158;-72
2022/07/24 05:38:51;;;;;;;8.90;8.20;;;;;;;27.13;100.00;99243.80;105339;1271;62184;-72
2022/07/24 05:41:17;;;;;;;9.70;8.90;;;;;;;27.15;100.00;99241.64;105239;1272;62184;-71
2022/07/24 05:43:43;;;;;;;9.20;8.20;;;;;;;27.22;100.00;99241.57;104956;1274;62152;-72
2022/07/24 05:46:09;;;;;;;9.10;8.40;;;;;;;27.50;100.00;99236.52;104956;1274;62166;-72
2022/07/24 05:48:35;;;;;;;9.40;8.60;;;;;;;27.81;100.00;99237.96;105190;1271;62101;-72
2022/07/24 05:51:01;;;;;;;8.40;7.40;;;;;;;27.96;100.00;99235.35;105203;1271;62193;-72
2022/07/24 05:53:27;;;;;;;8.40;7.70;;;;;;;27.83;100.00;99234.90;105260;1271;62103;-73
2022/07/24 05:55:53;;;;;;;9.00;8.20;;;;;;;27.72;100.00;99232.37;105220;1271;62159;-72
2022/07/24 05:58:19;;;;;;;8.80;8.10;;;;;;;27.82;100.00;99234.65;105227;1271;62194;-72
2022/07/24 06:00:45;;;;;;;8.80;8.10;;;;;;;27.88;100.00;99232.42;105233;1271;62078;-72
2022/07/24 06:03:12;;;;;;;10.80;7.90;;;;;;;28.02;100.00;99233.54;105221;1271;62050;-73
2022/07/24 06:05:38;;;;;;;8.10;7.40;;;;;;;28.30;100.00;99236.27;104874;1274;62274;-71
2022/07/24 06:08:05;;;;;;;6.10;5.70;;;;;;;28.60;100.00;99236.66;105193;1271;62184;-72
2022/07/24 06:10:31;;;;;;;6.90;6.30;;;;;;;28.48;100.00;99234.13;105247;1271;62098;-72
2022/07/24 06:12:58;;;;;;;7.40;6.60;;;;;;;28.37;100.00;99232.01;105217;1271;61976;-72
2022/07/24 06:15:24;;;;;;;6.90;6.20;;;;;;;28.33;100.00;99228.77;105203;1271;62154;-72
2022/07/24 06:17:50;;;;;;;6.40;5.80;;;;;;;28.26;100.00;99234.63;105251;1270;62188;-71
2022/07/24 06:20:16;;;;;;;6.90;6.30;;;;;;;28.19;100.00;99239.23;105265;1268;62061;-71
2022/07/24 06:22:44;;;;;;;7.10;6.10;;;;;;;28.27;100.00;99239.19;105235;1268;62160;-72
2022/07/24 06:25:11;;;;;;;6.50;5.90;;;;;;;28.17;100.00;99238.30;105215;1268;62066;-72
2022/07/24 06:27:42;;;;;;;6.60;6.00;;;;;;;28.15;100.00;99241.39;105285;1268;75874;-71
2022/07/24 06:30:23;;;;;;;7.00;6.30;;;;;;;28.11;100.00;99241.71;105232;1268;69209;-71
2022/07/24 06:32:51;;;;;;;6.10;5.20;;;;;;;28.07;100.00;99246.19;105218;1268;73358;-71
2022/07/24 06:35:17;;;;;;;6.20;5.70;;;;;;;28.09;100.00;99245.00;105223;1268;62066;-71
2022/07/24 06:37:43;;;;;;;6.80;6.10;;;;;;;28.21;100.00;99246.95;105256;1268;61976;-73
2022/07/24 06:40:11;;;;;;;7.40;5.80;;;;;;;28.08;100.00;99241.50;105241;1268;62059;-72
2022/07/24 06:42:37;;;;;;;6.00;5.50;;;;;;;27.79;100.00;99244.06;105021;1268;70486;-72
2022/07/24 06:45:06;;;;;;;5.70;5.10;;;;;;;27.64;100.00;99246.52;105266;1268;62038;-72
2022/07/24 06:47:32;;;;;;;5.90;5.30;;;;;;;27.62;100.00;99249.45;105268;1268;61941;-72
2022/07/24 06:49:58;;;;;;;6.00;5.10;;;;;;;27.63;100.00;99248.98;104988;1272;62228;-71
2022/07/24 06:52:24;;;;;;;5.70;5.20;;;;;;;27.51;100.00;99249.89;105272;1268;62164;-73
2022/07/24 06:54:50;;;;;;;5.90;5.10;;;;;;;27.56;100.00;99252.05;105223;1268;62213;-72
2022/07/24 06:57:19;;;;;;;6.00;5.40;;;;;;;27.45;100.00;99253.40;105218;1269;62114;-72
2022/07/24 06:59:45;;;;;;;6.50;5.90;;;;;;;27.39;100.00;99260.28;105278;1268;62081;-72
2022/07/24 07:02:11;;;;;;;5.70;5.20;;;;;;;27.46;100.00;99254.98;105219;1268;62160;-72
2022/07/24 07:04:37;;;;;;;5.80;5.40;;;;;;;27.59;100.00;99255.50;105256;1268;62180;-72
2022/07/24 07:07:03;;;;;;;6.60;5.70;;;;;;;27.78;100.00;99258.81;105244;1268;62190;-72
2022/07/24 07:09:29;;;;;;;6.90;6.20;;;;;;;27.26;100.00;99265.77;105328;1268;62078;-72
2022/07/24 07:11:55;;;;;;;6.50;5.20;;;;;;;26.76;100.00;99261.46;105205;1268;62183;-72
2022/07/24 07:14:21;;;;;;;5.30;4.80;;;;;;;26.78;100.00;99261.89;104969;1268;62095;-73
2022/07/24 07:16:48;;;;;;;5.80;5.10;;;;;;;26.62;100.00;99261.30;105207;1268;62148;-71
2022/07/24 07:19:14;;;;;;;7.80;6.20;;;;;;;26.42;100.00;99259.27;105288;1268;62090;-72
2022/07/24 07:21:40;;;;;;;6.40;5.80;;;;;;;26.45;100.00;99256.89;105217;1268;62187;-71
2022/07/24 07:24:07;;;;;;;5.90;5.40;;;;;;;26.69;100.00;99257.77;105275;1268;62157;-71
2022/07/24 07:26:33;;;;;;;6.50;6.00;;;;;;;26.54;100.00;99259.71;105252;1268;62134;-72
2022/07/24 07:28:59;;;;;;;6.70;5.80;;;;;;;26.20;100.00;99262.41;105310;1268;62200;-70
2022/07/24 07:31:26;;;;;;;6.60;6.00;;;;;;;26.23;100.00;99263.83;105238;1268;70354;-72
2022/07/24 07:33:52;;;;;;;8.00;6.30;;;;;;;26.20;100.00;99264.27;105333;1268;62101;-71
2022/07/24 07:36:19;;;;;;;7.90;6.70;;;;;;;26.02;100.00;99262.00;105362;1268;61973;-74
2022/07/24 07:38:45;;;;;;;7.20;6.60;;;;;;;25.98;100.00;99263.39;105479;1268;62116;-73
2022/07/24 07:41:12;;;;;;;5.40;5.00;;;;;;;25.84;100.00;99268.23;105201;1268;62196;-72
2022/07/24 07:43:38;;;;;;;6.30;5.00;;;;;;;25.94;100.00;99268.89;105025;1270;62290;-72
2022/07/24 07:46:05;;;;;;;8.00;5.20;;;;;;;25.88;100.00;99270.34;105409;1268;62191;-71
2022/07/24 07:48:31;;;;;;;5.60;5.10;;;;;;;25.72;100.00;99272.75;105051;1268;62026;-72
2022/07/24 07:50:59;;;;;;;5.40;4.90;;;;;;;25.58;100.00;99275.76;104977;1274;62227;-72
2022/07/24 07:53:25;;;;;;;6.20;5.60;;;;;;;25.49;100.00;99278.14;105258;1268;69234;-71
2022/07/24 07:55:52;;;;;;;5.70;5.20;;;;;;;25.38;100.00;99281.56;105250;1268;62190;-72
2022/07/24 07:58:19;;;;;;;5.50;5.00;;;;;;;25.22;100.00;99282.75;105020;1268;62162;-72
2022/07/24 08:00:45;;;;;;;4.90;4.60;;;;;;;25.27;100.00;99280.46;105280;1268;62124;-80
2022/07/24 08:03:11;;;;;;;5.60;5.10;;;;;;;25.38;100.00;99277.39;105325;1268;62502;-76
2022/07/24 08:05:37;;;;;;;6.40;4.90;;;;;;;25.67;100.00;99278.05;105378;1268;62184;-74
2022/07/24 08:08:04;;;;;;;5.30;4.90;;;;;;;26.00;100.00;99276.47;105296;1271;62100;-75
2022/07/24 08:10:30;;;;;;;5.70;5.20;;;;;;;26.25;100.00;99277.97;105271;1271;62035;-75
2022/07/24 08:12:56;;;;;;;5.40;4.90;;;;;;;26.27;100.00;99281.01;105386;1271;62534;-74
2022/07/24 08:15:22;;;;;;;4.40;4.00;;;;;;;26.10;100.00;99278.34;105457;1270;62064;-73
2022/07/24 08:17:57;;;;;;;4.90;4.50;;;;;;;25.74;100.00;99278.95;105412;1271;62227;-74
2022/07/24 08:20:24;;;;;;;5.40;4.40;;;;;;;25.48;100.00;99283.23;105387;1271;73333;-77
2022/07/24 08:22:51;;;;;;;5.00;4.50;;;;;;;25.38;100.00;99281.85;105315;1271;62158;-75
2022/07/24 08:25:18;;;;;;;4.90;4.40;;;;;;;25.44;100.00;99278.82;105360;1271;62537;-77
2022/07/24 08:27:45;;;;;;;5.30;4.40;;;;;;;25.47;100.00;99284.10;105275;1271;76487;-78
2022/07/24 08:30:12;;;;;;;5.90;4.50;;;;;;;25.48;100.00;99283.91;105327;1271;62148;-74
2022/07/24 08:32:39;;;;;;;4.50;4.20;;;;;;;25.53;100.00;99289.09;105349;1271;74672;-76
2022/07/24 08:35:06;;;;;;;4.90;4.10;;;;;;;25.48;100.00;99293.06;105323;1271;62057;-74
2022/07/24 08:37:37;;;;;;;5.10;4.60;;;;;;;25.19;100.00;99296.08;105362;1268;62183;-78
2022/07/24 08:40:33;;;;;;;4.40;4.00;;;;;;;25.18;100.00;99296.36;105339;1271;77207;-77
2022/07/24 08:43:00;;;;;;;4.70;4.30;;;;;;;25.32;100.00;99289.34;105344;1271;69405;-77
2022/07/24 08:45:27;;;;;;;5.60;4.10;;;;;;;25.23;100.00;99297.45;105430;1271;72884;-78
2022/07/24 08:47:56;;;;;;;4.20;3.90;;;;;;;25.19;100.00;99299.74;105285;1271;62164;-75
2022/07/24 08:50:22;;;;;;;4.80;4.00;;;;;;;25.07;100.00;99293.52;105314;1270;62161;-74
2022/07/24 08:52:49;;;;;;;4.30;3.90;;;;;;;25.23;100.00;99295.55;105135;1272;62082;-75
2022/07/24 08:55:17;;;;;;;4.40;4.10;;;;;;;25.46;100.00;99291.81;105316;1271;62148;-74
2022/07/24 08:57:42;;;;;;;3.80;3.40;;;;;;;25.80;100.00;99286.16;105338;1271;73377;-73
2022/07/24 09:00:13;;;;;;;4.10;3.60;;;;;;;25.81;100.00;99280.80;105312;1271;62087;-73
2022/07/24 09:02:39;;;;;;;5.10;4.00;;;;;;;25.81;100.00;99281.19;105377;1268;62049;-74
2022/07/24 09:05:05;;;;;;;4.20;3.60;;;;;;;25.95;100.00;99287.81;105355;1271;76353;-75
2022/07/24 09:07:33;;;;;;;3.60;3.10;;;;;;;25.90;100.00;99287.77;105140;1271;70518;-73
2022/07/24 09:10:05;;;;;;;3.70;3.40;;;;;;;25.54;100.00;99291.33;105276;1271;62209;-76
2022/07/24 09:12:42;;;;;;;4.60;3.30;;;;;;;25.13;100.00;99291.09;105155;1271;62834;-76
2022/07/24 09:15:22;;;;;;;3.90;3.50;;;;;;;25.16;100.00;99288.73;105160;1274;63874;-75
2022/07/24 09:17:52;;;;;;;4.20;3.70;;;;;;;25.59;100.00;99292.97;105162;1271;75101;-72
2022/07/24 09:20:20;;;;;;;4.40;4.00;;;;;;;25.94;100.00;99291.79;105180;1271;68868;-73
2022/07/24 09:22:47;;;;;;;5.20;4.10;;;;;;;25.81;100.00;99291.29;105174;1271;73600;-72
2022/07/24 09:25:21;;;;;;;4.60;4.10;;;;;;;25.80;100.00;99291.68;105360;1271;62020;-72
2022/07/24 09:27:59;;;;;;;5.10;4.50;;;;;;;25.86;100.00;99294.68;105157;1271;62007;-72
2022/07/24 09:30:41;;;;;;;4.90;4.50;;;;;;;25.95;100.00;99292.36;105287;1271;76401;-71
2022/07/24 09:33:12;;;;;;;5.90;4.30;;;;;;;26.20;100.00;99290.15;105122;1271;70368;-73
2022/07/24 09:35:42;;;;;;;4.50;4.00;;;;;;;26.28;99.90;99291.61;105208;1271;73474;-72
2022/07/24 09:38:14;;;;;;;4.30;3.70;;;;;;;26.38;100.00;99285.80;105041;1272;62023;-74
2022/07/24 09:40:44;;;;;;;4.10;3.70;;;;;;;26.65;100.00;99283.77;105751;1271;62761;-72
2022/07/24 09:43:22;;;;;;;4.10;3.80;;;;;;;26.83;100.00;99279.67;105948;1271;75727;-72
2022/07/24 09:46:02;;;;;;;4.00;3.70;;;;;;;27.05;99.07;99270.34;105271;1271;245245;-72
2022/07/24 09:48:28;;;;;;;4.00;3.70;;;;;;;27.04;84.54;99272.64;105222;1270;73141;-75
2022/07/24 09:50:57;;;;;;;4.00;3.70;;;;;;;27.12;83.74;99277.75;105186;1271;62150;-72
2022/07/24 09:53:28;;;;;;;4.30;4.00;;;;;;;27.02;82.08;99278.30;104998;1271;62260;-72
2022/07/24 09:55:57;;;;;;;4.00;3.70;;;;;;;27.00;82.24;99281.02;105262;1271;77004;-72
2022/07/24 09:58:25;;;;;;;4.10;3.80;;;;;;;26.85;80.78;99279.98;105189;1270;68741;-71
2022/07/24 10:00:55;;;;;;;4.20;3.80;;;;;;;26.98;81.51;99276.75;105058;1271;73292;-73
2022/07/24 10:03:27;;;;;;;4.50;4.00;;;;;;;27.23;81.20;99275.38;105154;1271;61973;-72
2022/07/24 10:05:57;;;;;;;3.70;3.40;;;;;;;27.42;79.76;99270.66;105208;1271;62046;-72
2022/07/24 10:08:24;;;;;;;4.40;3.90;;;;;;;27.35;68.47;99271.35;105231;1271;77044;-72
2022/07/24 10:10:51;;;;;;;6.50;4.40;;;;;;;27.04;68.08;99268.11;105266;1271;69284;-72
2022/07/24 10:13:17;;;;;;;4.50;4.10;;;;;;;27.07;65.92;99269.34;105167;1270;72789;-72
2022/07/24 10:16:14;;;;;;;5.20;4.00;;;;;;;27.11;67.81;99269.79;105183;1270;62097;-72
2022/07/24 10:18:54;;;;;;;4.60;3.90;;;;;;;27.22;67.49;99269.58;105223;1271;62213;-72
2022/07/24 10:21:24;;;;;;;5.00;4.50;;;;;;;27.00;66.12;99269.63;105195;1271;77427;-72
2022/07/24 10:24:10;;;;;;;4.80;4.20;;;;;;;26.72;65.06;99268.92;105130;1271;67410;-72
2022/07/24 10:26:40;;;;;;;4.80;3.90;;;;;;;26.56;65.41;99260.87;105045;1271;74537;-71
2022/07/24 10:29:14;;;;;;;4.30;4.00;;;;;;;26.48;65.66;99261.76;105108;1271;62179;-71
2022/07/24 10:31:43;;;;;;;4.20;3.90;;;;;;;26.34;65.76;99261.96;105121;1271;62184;-71
2022/07/24 10:34:19;;;;;;;4.30;3.80;;;;;;;26.09;65.69;99265.51;105205;1271;77016;-72
2022/07/24 10:36:54;;;;;;;4.90;4.40;;;;;;;26.04;66.54;99259.34;105300;1271;69446;-72
2022/07/24 10:39:28;;;;;;;5.40;5.00;;;;;;;26.00;67.61;99254.50;105157;1274;73480;-74
2022/07/24 10:42:02;;;;;;;4.90;4.40;;;;;;;26.21;67.36;99251.70;105249;1269;62068;-72
2022/07/24 10:44:29;;;;;;;4.50;4.20;;;;;;;26.46;67.85;99247.63;105262;1271;61955;-73
2022/07/24 10:47:05;;;;;;;4.90;4.50;;;;;;;26.84;68.22;99247.30;105180;1271;62193;-70
2022/07/24 10:49:38;;;;;;;4.90;4.50;;;;;;;27.16;65.14;99248.34;104932;1274;68758;-72
2022/07/24 10:52:05;;;;;;;4.50;3.90;;;;;;;27.27;62.79;99248.30;105168;1271;73734;-72
2022/07/24 10:54:31;;;;;;;5.20;4.80;;;;;;;27.27;61.96;99257.23;105204;1270;62194;-71
2022/07/24 10:56:57;;;;;;;5.00;4.40;;;;;;;27.38;64.63;99237.17;105281;1271;62108;-72
2022/07/24 10:59:36;;;;;;;5.20;4.70;;;;;;;27.28;63.88;99245.43;106407;1271;62160;-73
2022/07/24 11:02:28;;;;;;;5.70;5.00;;;;;;;27.17;62.26;99244.52;105160;1271;69694;-73
2022/07/24 11:05:25;;;;;;;5.00;4.60;;;;;;;27.23;61.84;99241.63;105190;1271;73636;-73
2022/07/24 11:08:17;;;;;;;5.60;5.00;;;;;;;27.24;62.58;99235.27;105284;1271;62069;-73
2022/07/24 11:10:53;;;;;;;5.00;4.40;;;;;;;27.38;62.33;99229.29;105223;1271;62171;-72
2022/07/24 11:13:31;;;;;;;4.80;4.40;;;;;;;27.56;62.89;99225.30;105188;1271;76469;-72
2022/07/24 11:16:12;;;;;;;5.10;4.70;;;;;;;27.78;62.28;99223.80;105223;1271;70291;-73